sensor_id;sensor_type;location;lat;lon;timestamp;temperature;humidity
55830;DHT22;41759;53.330;6.002;2024-02-21T00:00:56;9.10;99.90
55830;DHT22;41759;53.330;6.002;2024-02-21T00:03:22;10.30;99.90
55830;DHT22;41759;53.330;6.002;2024-02-21T00:05:47;9.70;99.90
55830;DHT22;41759;53.330;6.002;2024-02-21T00:08:13;9.00;99.90
55830;DHT22;41759;53.330;6.002;2024-02-21T00:10:39;10.10;99.90
55830;DHT22;41759;53.330;6.002;2024-02-21T00:13:04;9.20;99.90
55830;DHT22;41759;53.330;6.002;2024-02-21T00:15:30;9.00;99.90
55830;DHT22;41759;53.330;6.002;2024-02-21T00:17:56;9.00;99.90
55830;DHT22;41759;53.330;6.002;2024-02-21T00:20:21;9.00;99.90
55830;DHT22;41759;53.330;6.002;2024-02-21T00:22:47;9.80;99.90
55830;DHT22;41759;53.330;6.002;2024-02-21T00:25:13;9.10;99.90
55830;DHT22;41759;53.330;6.002;2024-02-21T00:27:39;9.50;99.90
55830;DHT22;41759;53.330;6.002;2024-02-21T00:30:05;9.50;99.90
55830;DHT22;41759;53.330;6.002;2024-02-21T00:32:31;8.90;99.90
55830;DHT22;41759;53.330;6.002;2024-02-21T00:34:57;9.00;99.90
55830;DHT22;41759;53.330;6.002;2024-02-21T00:37:23;8.70;99.90
55830;DHT22;41759;53.330;6.002;2024-02-21T00:39:49;9.20;99.90
55830;DHT22;41759;53.330;6.002;2024-02-21T00:42:14;9.00;99.90
55830;DHT22;41759;53.330;6.002;2024-02-21T00:44:40;9.00;99.90
55830;DHT22;41759;53.330;6.002;2024-02-21T00:47:05;9.40;99.90
55830;DHT22;41759;53.330;6.002;2024-02-21T00:49:31;9.00;99.90
55830;DHT22;41759;53.330;6.002;2024-02-21T00:51:57;9.70;99.90
55830;DHT22;41759;53.330;6.002;2024-02-21T00:54:22;9.00;99.90
55830;DHT22;41759;53.330;6.002;2024-02-21T00:56:48;9.00;99.90
55830;DHT22;41759;53.330;6.002;2024-02-21T00:59:14;9.00;99.90
55830;DHT22;41759;53.330;6.002;2024-02-21T01:01:39;9.80;99.90
55830;DHT22;41759;53.330;6.002;2024-02-21T01:04:09;8.90;99.90
55830;DHT22;41759;53.330;6.002;2024-02-21T01:06:34;9.00;99.90
55830;DHT22;41759;53.330;6.002;2024-02-21T01:09:00;9.00;99.90
55830;DHT22;41759;53.330;6.002;2024-02-21T01:11:26;8.90;99.90
55830;DHT22;41759;53.330;6.002;2024-02-21T01:13:51;9.00;99.90
55830;DHT22;41759;53.330;6.002;2024-02-21T01:16:17;8.90;99.90
55830;DHT22;41759;53.330;6.002;2024-02-21T01:18:43;8.90;99.90
55830;DHT22;41759;53.330;6.002;2024-02-21T01:21:08;9.00;99.90
55830;DHT22;41759;53.330;6.002;2024-02-21T01:23:36;9.00;99.90
55830;DHT22;41759;53.330;6.002;2024-02-21T01:26:03;10.80;99.90
55830;DHT22;41759;53.330;6.002;2024-02-21T01:28:29;9.00;99.90
55830;DHT22;41759;53.330;6.002;2024-02-21T01:30:54;9.00;99.90
55830;DHT22;41759;53.330;6.002;2024-02-21T01:33:20;9.00;99.90
55830;DHT22;41759;53.330;6.002;2024-02-21T01:35:45;9.00;99.90
55830;DHT22;41759;53.330;6.002;2024-02-21T01:38:13;9.40;99.90
55830;DHT22;41759;53.330;6.002;2024-02-21T01:40:38;9.00;99.90
55830;DHT22;41759;53.330;6.002;2024-02-21T01:43:19;9.30;99.90
55830;DHT22;41759;53.330;6.002;2024-02-21T01:45:53;9.00;99.90
55830;DHT22;41759;53.330;6.002;2024-02-21T01:48:19;9.00;99.90
55830;DHT22;41759;53.330;6.002;2024-02-21T01:50:46;9.10;99.90
55830;DHT22;41759;53.330;6.002;2024-02-21T01:53:14;9.10;99.90
55830;DHT22;41759;53.330;6.002;2024-02-21T01:55:47;9.40;99.90
55830;DHT22;41759;53.330;6.002;2024-02-21T01:58:16;9.00;99.90
55830;DHT22;41759;53.330;6.002;2024-02-21T02:00:43;9.00;99.90
55830;DHT22;41759;53.330;6.002;2024-02-21T02:03:13;9.00;99.90
55830;DHT22;41759;53.330;6.002;2024-02-21T02:05:47;9.00;99.90
55830;DHT22;41759;53.330;6.002;2024-02-21T02:08:14;9.00;99.90
55830;DHT22;41759;53.330;6.002;2024-02-21T02:10:40;9.00;99.90
55830;DHT22;41759;53.330;6.002;2024-02-21T02:13:06;9.40;99.90
55830;DHT22;41759;53.330;6.002;2024-02-21T02:18:05;9.50;99.90
55830;DHT22;41759;53.330;6.002;2024-02-21T02:20:30;9.00;99.90
55830;DHT22;41759;53.330;6.002;2024-02-21T02:22:58;9.00;99.90
55830;DHT22;41759;53.330;6.002;2024-02-21T02:25:25;9.90;99.90
55830;DHT22;41759;53.330;6.002;2024-02-21T02:27:51;9.00;99.90
55830;DHT22;41759;53.330;6.002;2024-02-21T02:30:17;9.00;99.90
55830;DHT22;41759;53.330;6.002;2024-02-21T02:32:45;9.30;99.90
55830;DHT22;41759;53.330;6.002;2024-02-21T02:35:11;8.90;99.90
55830;DHT22;41759;53.330;6.002;2024-02-21T02:37:37;8.90;99.90
55830;DHT22;41759;53.330;6.002;2024-02-21T02:40:08;10.30;99.90
55830;DHT22;41759;53.330;6.002;2024-02-21T02:42:33;8.90;99.90
55830;DHT22;41759;53.330;6.002;2024-02-21T02:44:59;8.90;99.90
55830;DHT22;41759;53.330;6.002;2024-02-21T02:47:25;8.90;99.90
55830;DHT22;41759;53.330;6.002;2024-02-21T02:49:50;9.40;99.90
55830;DHT22;41759;53.330;6.002;2024-02-21T02:52:17;9.00;99.90
55830;DHT22;41759;53.330;6.002;2024-02-21T02:54:43;9.20;99.90
55830;DHT22;41759;53.330;6.002;2024-02-21T02:57:09;8.80;99.90
55830;DHT22;41759;53.330;6.002;2024-02-21T02:59:35;7.40;99.90
55830;DHT22;41759;53.330;6.002;2024-02-21T03:02:01;9.10;99.90
55830;DHT22;41759;53.330;6.002;2024-02-21T03:04:26;8.90;99.90
55830;DHT22;41759;53.330;6.002;2024-02-21T03:06:53;8.90;99.90
55830;DHT22;41759;53.330;6.002;2024-02-21T03:09:19;8.40;99.90
55830;DHT22;41759;53.330;6.002;2024-02-21T03:11:44;8.80;99.90
55830;DHT22;41759;53.330;6.002;2024-02-21T03:14:10;8.80;99.90
55830;DHT22;41759;53.330;6.002;2024-02-21T03:16:36;9.20;99.90
55830;DHT22;41759;53.330;6.002;2024-02-21T03:19:02;8.80;99.90
55830;DHT22;41759;53.330;6.002;2024-02-21T03:21:27;8.80;99.90
55830;DHT22;41759;53.330;6.002;2024-02-21T03:23:53;9.80;99.90
55830;DHT22;41759;53.330;6.002;2024-02-21T03:26:18;8.80;99.90
55830;DHT22;41759;53.330;6.002;2024-02-21T03:28:44;8.80;99.90
55830;DHT22;41759;53.330;6.002;2024-02-21T03:31:11;10.30;99.90
55830;DHT22;41759;53.330;6.002;2024-02-21T03:33:39;8.80;99.90
55830;DHT22;41759;53.330;6.002;2024-02-21T03:36:06;8.80;99.90
55830;DHT22;41759;53.330;6.002;2024-02-21T03:38:31;8.80;99.90
55830;DHT22;41759;53.330;6.002;2024-02-21T03:40:57;8.80;99.90
55830;DHT22;41759;53.330;6.002;2024-02-21T03:43:22;8.80;99.90
55830;DHT22;41759;53.330;6.002;2024-02-21T03:45:49;8.80;99.90
55830;DHT22;41759;53.330;6.002;2024-02-21T03:48:14;9.00;99.90
55830;DHT22;41759;53.330;6.002;2024-02-21T03:50:40;8.80;99.90
55830;DHT22;41759;53.330;6.002;2024-02-21T03:53:05;9.20;99.90
55830;DHT22;41759;53.330;6.002;2024-02-21T03:55:31;9.30;99.90
55830;DHT22;41759;53.330;6.002;2024-02-21T03:57:57;8.80;99.90
55830;DHT22;41759;53.330;6.002;2024-02-21T04:00:23;10.00;99.90
55830;DHT22;41759;53.330;6.002;2024-02-21T04:02:49;8.80;99.90
55830;DHT22;41759;53.330;6.002;2024-02-21T04:05:16;8.90;99.90
55830;DHT22;41759;53.330;6.002;2024-02-21T04:07:42;8.90;99.90
55830;DHT22;41759;53.330;6.002;2024-02-21T04:10:08;8.80;99.90
55830;DHT22;41759;53.330;6.002;2024-02-21T04:12:34;8.80;99.90
55830;DHT22;41759;53.330;6.002;2024-02-21T04:14:59;8.80;99.90
55830;DHT22;41759;53.330;6.002;2024-02-21T04:17:25;8.90;99.90
55830;DHT22;41759;53.330;6.002;2024-02-21T04:20:02;8.80;99.90
55830;DHT22;41759;53.330;6.002;2024-02-21T04:22:31;9.10;99.90
55830;DHT22;41759;53.330;6.002;2024-02-21T04:24:59;9.50;99.90
55830;DHT22;41759;53.330;6.002;2024-02-21T04:27:25;9.80;99.90
55830;DHT22;41759;53.330;6.002;2024-02-21T04:29:51;8.80;99.90
55830;DHT22;41759;53.330;6.002;2024-02-21T04:32:16;8.90;99.90
55830;DHT22;41759;53.330;6.002;2024-02-21T04:34:42;8.80;99.90
55830;DHT22;41759;53.330;6.002;2024-02-21T04:37:07;8.90;99.90
55830;DHT22;41759;53.330;6.002;2024-02-21T04:39:33;8.90;99.90
55830;DHT22;41759;53.330;6.002;2024-02-21T04:41:59;9.00;99.90
55830;DHT22;41759;53.330;6.002;2024-02-21T04:44:24;8.80;99.90
55830;DHT22;41759;53.330;6.002;2024-02-21T04:46:50;9.50;99.90
55830;DHT22;41759;53.330;6.002;2024-02-21T04:49:16;9.30;99.90
55830;DHT22;41759;53.330;6.002;2024-02-21T04:51:41;8.80;99.90
55830;DHT22;41759;53.330;6.002;2024-02-21T04:54:07;8.80;99.90
55830;DHT22;41759;53.330;6.002;2024-02-21T04:56:32;8.80;99.90
55830;DHT22;41759;53.330;6.002;2024-02-21T04:58:59;8.80;99.90
55830;DHT22;41759;53.330;6.002;2024-02-21T05:01:24;8.80;99.90
55830;DHT22;41759;53.330;6.002;2024-02-21T05:03:50;8.80;99.90
55830;DHT22;41759;53.330;6.002;2024-02-21T05:06:16;8.80;99.90
55830;DHT22;41759;53.330;6.002;2024-02-21T05:08:42;8.80;99.90
55830;DHT22;41759;53.330;6.002;2024-02-21T05:11:08;9.50;99.90
55830;DHT22;41759;53.330;6.002;2024-02-21T05:13:33;9.20;99.90
55830;DHT22;41759;53.330;6.002;2024-02-21T05:15:59;8.90;99.90
55830;DHT22;41759;53.330;6.002;2024-02-21T05:18:27;8.80;99.90
55830;DHT22;41759;53.330;6.002;2024-02-21T05:20:53;9.30;99.90
55830;DHT22;41759;53.330;6.002;2024-02-21T05:23:19;10.50;99.90
55830;DHT22;41759;53.330;6.002;2024-02-21T05:25:44;10.00;99.90
55830;DHT22;41759;53.330;6.002;2024-02-21T05:28:10;8.90;99.90
55830;DHT22;41759;53.330;6.002;2024-02-21T05:30:36;8.80;99.90
55830;DHT22;41759;53.330;6.002;2024-02-21T05:33:05;8.80;99.90
55830;DHT22;41759;53.330;6.002;2024-02-21T05:35:31;8.80;99.90
55830;DHT22;41759;53.330;6.002;2024-02-21T05:37:57;8.80;99.90
55830;DHT22;41759;53.330;6.002;2024-02-21T05:40:22;8.80;99.90
55830;DHT22;41759;53.330;6.002;2024-02-21T05:42:48;9.00;99.90
55830;DHT22;41759;53.330;6.002;2024-02-21T05:45:14;8.80;99.90
55830;DHT22;41759;53.330;6.002;2024-02-21T05:47:41;8.80;99.90
55830;DHT22;41759;53.330;6.002;2024-02-21T05:50:07;8.80;99.90
55830;DHT22;41759;53.330;6.002;2024-02-21T05:52:33;8.80;99.90
55830;DHT22;41759;53.330;6.002;2024-02-21T05:54:58;8.80;99.90
55830;DHT22;41759;53.330;6.002;2024-02-21T05:57:24;8.80;99.90
55830;DHT22;41759;53.330;6.002;2024-02-21T05:59:49;10.00;99.90
55830;DHT22;41759;53.330;6.002;2024-02-21T06:02:15;8.80;99.90
55830;DHT22;41759;53.330;6.002;2024-02-21T06:04:41;9.20;99.90
55830;DHT22;41759;53.330;6.002;2024-02-21T06:07:08;8.90;99.90
55830;DHT22;41759;53.330;6.002;2024-02-21T06:09:34;9.00;99.90
55830;DHT22;41759;53.330;6.002;2024-02-21T06:11:59;9.70;99.90
55830;DHT22;41759;53.330;6.002;2024-02-21T06:14:25;9.60;99.90
55830;DHT22;41759;53.330;6.002;2024-02-21T06:16:51;8.80;99.90
55830;DHT22;41759;53.330;6.002;2024-02-21T06:19:17;8.80;99.90
55830;DHT22;41759;53.330;6.002;2024-02-21T06:21:42;8.80;99.90
55830;DHT22;41759;53.330;6.002;2024-02-21T06:24:08;8.80;99.90
55830;DHT22;41759;53.330;6.002;2024-02-21T06:26:34;8.80;99.90
55830;DHT22;41759;53.330;6.002;2024-02-21T06:28:59;8.80;99.90
55830;DHT22;41759;53.330;6.002;2024-02-21T06:31:26;10.30;99.90
55830;DHT22;41759;53.330;6.002;2024-02-21T06:33:52;9.80;99.90
55830;DHT22;41759;53.330;6.002;2024-02-21T06:36:18;8.80;99.90
55830;DHT22;41759;53.330;6.002;2024-02-21T06:38:43;8.80;99.90
55830;DHT22;41759;53.330;6.002;2024-02-21T06:41:18;10.00;99.90
55830;DHT22;41759;53.330;6.002;2024-02-21T06:43:47;8.80;99.90
55830;DHT22;41759;53.330;6.002;2024-02-21T06:46:24;9.70;99.90
55830;DHT22;41759;53.330;6.002;2024-02-21T06:48:50;8.80;99.90
55830;DHT22;41759;53.330;6.002;2024-02-21T06:51:16;8.80;99.90
55830;DHT22;41759;53.330;6.002;2024-02-21T06:53:42;8.80;99.90
55830;DHT22;41759;53.330;6.002;2024-02-21T06:56:10;8.80;99.90
55830;DHT22;41759;53.330;6.002;2024-02-21T06:58:36;8.80;99.90
55830;DHT22;41759;53.330;6.002;2024-02-21T07:01:01;8.80;99.90
55830;DHT22;41759;53.330;6.002;2024-02-21T07:03:27;8.80;99.90
55830;DHT22;41759;53.330;6.002;2024-02-21T07:05:53;8.90;99.90
55830;DHT22;41759;53.330;6.002;2024-02-21T07:08:18;8.80;99.90
55830;DHT22;41759;53.330;6.002;2024-02-21T07:10:44;8.80;99.90
55830;DHT22;41759;53.330;6.002;2024-02-21T07:13:10;8.80;99.90
55830;DHT22;41759;53.330;6.002;2024-02-21T07:15:35;10.60;99.90
55830;DHT22;41759;53.330;6.002;2024-02-21T07:18:02;9.80;99.90
55830;DHT22;41759;53.330;6.002;2024-02-21T07:20:28;8.80;99.90
55830;DHT22;41759;53.330;6.002;2024-02-21T07:22:54;8.90;99.90
55830;DHT22;41759;53.330;6.002;2024-02-21T07:25:20;10.30;99.90
55830;DHT22;41759;53.330;6.002;2024-02-21T07:27:45;9.30;99.90
55830;DHT22;41759;53.330;6.002;2024-02-21T07:30:11;8.90;99.90
55830;DHT22;41759;53.330;6.002;2024-02-21T07:32:37;8.90;99.90
55830;DHT22;41759;53.330;6.002;2024-02-21T07:35:03;10.10;99.90
55830;DHT22;41759;53.330;6.002;2024-02-21T07:37:28;9.00;99.90
55830;DHT22;41759;53.330;6.002;2024-02-21T07:39:54;8.90;99.90
55830;DHT22;41759;53.330;6.002;2024-02-21T07:42:20;9.00;99.90
55830;DHT22;41759;53.330;6.002;2024-02-21T07:44:45;9.70;99.90
55830;DHT22;41759;53.330;6.002;2024-02-21T07:47:11;9.00;99.90
55830;DHT22;41759;53.330;6.002;2024-02-21T07:49:44;9.30;99.90
55830;DHT22;41759;53.330;6.002;2024-02-21T07:52:10;9.10;99.90
55830;DHT22;41759;53.330;6.002;2024-02-21T07:54:36;9.00;99.90
55830;DHT22;41759;53.330;6.002;2024-02-21T07:57:02;9.00;99.90
55830;DHT22;41759;53.330;6.002;2024-02-21T07:59:29;9.00;99.90
55830;DHT22;41759;53.330;6.002;2024-02-21T08:01:58;8.90;99.90
55830;DHT22;41759;53.330;6.002;2024-02-21T08:04:24;9.00;99.90
55830;DHT22;41759;53.330;6.002;2024-02-21T08:06:53;9.00;99.90
55830;DHT22;41759;53.330;6.002;2024-02-21T08:09:24;9.00;99.90
55830;DHT22;41759;53.330;6.002;2024-02-21T08:11:49;9.80;99.90
55830;DHT22;41759;53.330;6.002;2024-02-21T08:14:15;9.30;99.90
55830;DHT22;41759;53.330;6.002;2024-02-21T08:16:42;9.10;99.90
55830;DHT22;41759;53.330;6.002;2024-02-21T08:19:08;9.10;99.90
55830;DHT22;41759;53.330;6.002;2024-02-21T08:21:35;9.10;99.90
55830;DHT22;41759;53.330;6.002;2024-02-21T08:24:01;9.60;99.90
55830;DHT22;41759;53.330;6.002;2024-02-21T08:26:27;9.10;99.90
55830;DHT22;41759;53.330;6.002;2024-02-21T08:28:56;9.10;99.90
55830;DHT22;41759;53.330;6.002;2024-02-21T08:31:24;9.10;99.90
55830;DHT22;41759;53.330;6.002;2024-02-21T08:33:59;9.10;99.90
55830;DHT22;41759;53.330;6.002;2024-02-21T08:36:32;9.10;99.90
55830;DHT22;41759;53.330;6.002;2024-02-21T08:38:59;9.10;99.90
55830;DHT22;41759;53.330;6.002;2024-02-21T08:41:25;9.00;99.90
55830;DHT22;41759;53.330;6.002;2024-02-21T08:43:51;9.10;99.90
55830;DHT22;41759;53.330;6.002;2024-02-21T08:46:17;9.10;99.90
55830;DHT22;41759;53.330;6.002;2024-02-21T08:48:43;9.60;99.90
55830;DHT22;41759;53.330;6.002;2024-02-21T08:51:12;9.10;99.90
55830;DHT22;41759;53.330;6.002;2024-02-21T08:53:38;9.10;99.90
55830;DHT22;41759;53.330;6.002;2024-02-21T08:56:04;9.10;99.90
55830;DHT22;41759;53.330;6.002;2024-02-21T08:58:30;9.10;99.90
55830;DHT22;41759;53.330;6.002;2024-02-21T09:00:56;9.20;99.90
55830;DHT22;41759;53.330;6.002;2024-02-21T09:03:22;9.10;99.90
55830;DHT22;41759;53.330;6.002;2024-02-21T09:05:48;9.70;99.90
55830;DHT22;41759;53.330;6.002;2024-02-21T09:08:14;9.20;99.90
55830;DHT22;41759;53.330;6.002;2024-02-21T09:10:40;9.10;99.90
55830;DHT22;41759;53.330;6.002;2024-02-21T09:13:06;10.30;99.90
55830;DHT22;41759;53.330;6.002;2024-02-21T09:15:33;9.20;99.90
55830;DHT22;41759;53.330;6.002;2024-02-21T09:17:59;9.20;99.90
55830;DHT22;41759;53.330;6.002;2024-02-21T09:20:24;9.20;99.90
55830;DHT22;41759;53.330;6.002;2024-02-21T09:22:50;9.30;99.90
55830;DHT22;41759;53.330;6.002;2024-02-21T09:25:17;9.30;99.90
55830;DHT22;41759;53.330;6.002;2024-02-21T09:27:44;10.50;99.90
55830;DHT22;41759;53.330;6.002;2024-02-21T09:30:10;9.30;99.90
55830;DHT22;41759;53.330;6.002;2024-02-21T09:32:36;9.40;99.90
55830;DHT22;41759;53.330;6.002;2024-02-21T09:35:02;10.00;99.90
55830;DHT22;41759;53.330;6.002;2024-02-21T09:37:27;9.30;99.90
55830;DHT22;41759;53.330;6.002;2024-02-21T09:39:53;9.30;99.90
55830;DHT22;41759;53.330;6.002;2024-02-21T09:42:21;9.40;99.90
55830;DHT22;41759;53.330;6.002;2024-02-21T09:44:51;9.40;99.90
55830;DHT22;41759;53.330;6.002;2024-02-21T09:47:24;9.40;99.90
55830;DHT22;41759;53.330;6.002;2024-02-21T09:49:50;10.50;99.90
55830;DHT22;41759;53.330;6.002;2024-02-21T09:52:19;9.40;99.90
55830;DHT22;41759;53.330;6.002;2024-02-21T09:54:46;9.40;99.90
55830;DHT22;41759;53.330;6.002;2024-02-21T09:57:14;9.40;99.90
55830;DHT22;41759;53.330;6.002;2024-02-21T09:59:40;9.40;99.90
55830;DHT22;41759;53.330;6.002;2024-02-21T10:02:07;9.50;99.90
55830;DHT22;41759;53.330;6.002;2024-02-21T10:04:33;9.50;99.90
55830;DHT22;41759;53.330;6.002;2024-02-21T10:06:59;9.80;99.90
55830;DHT22;41759;53.330;6.002;2024-02-21T10:09:27;9.50;99.90
55830;DHT22;41759;53.330;6.002;2024-02-21T10:11:53;9.60;99.90
55830;DHT22;41759;53.330;6.002;2024-02-21T10:14:20;9.70;99.90
55830;DHT22;41759;53.330;6.002;2024-02-21T10:16:48;9.80;99.90
55830;DHT22;41759;53.330;6.002;2024-02-21T10:19:21;10.90;99.90
55830;DHT22;41759;53.330;6.002;2024-02-21T10:22:07;9.70;99.90
55830;DHT22;41759;53.330;6.002;2024-02-21T10:24:33;9.80;99.90
55830;DHT22;41759;53.330;6.002;2024-02-21T10:27:09;9.80;99.90
55830;DHT22;41759;53.330;6.002;2024-02-21T10:29:36;9.90;99.90
55830;DHT22;41759;53.330;6.002;2024-02-21T10:32:13;9.90;99.90
55830;DHT22;41759;53.330;6.002;2024-02-21T10:34:41;10.10;99.90
55830;DHT22;41759;53.330;6.002;2024-02-21T10:37:08;9.90;99.90
55830;DHT22;41759;53.330;6.002;2024-02-21T10:39:39;10.00;99.90
55830;DHT22;41759;53.330;6.002;2024-02-21T10:42:05;10.10;99.90
55830;DHT22;41759;53.330;6.002;2024-02-21T10:44:32;10.10;99.90
55830;DHT22;41759;53.330;6.002;2024-02-21T10:46:58;10.70;99.90
55830;DHT22;41759;53.330;6.002;2024-02-21T10:49:25;10.80;99.90
55830;DHT22;41759;53.330;6.002;2024-02-21T10:52:12;11.20;99.90
55830;DHT22;41759;53.330;6.002;2024-02-21T10:54:45;10.20;99.90
55830;DHT22;41759;53.330;6.002;2024-02-21T10:57:13;10.20;99.90
55830;DHT22;41759;53.330;6.002;2024-02-21T10:59:40;10.20;99.90
55830;DHT22;41759;53.330;6.002;2024-02-21T11:02:06;10.20;99.90
55830;DHT22;41759;53.330;6.002;2024-02-21T11:04:34;10.20;99.90
55830;DHT22;41759;53.330;6.002;2024-02-21T11:07:04;10.60;99.90
55830;DHT22;41759;53.330;6.002;2024-02-21T11:09:31;10.00;99.90
55830;DHT22;41759;53.330;6.002;2024-02-21T11:12:04;10.10;99.90
55830;DHT22;41759;53.330;6.002;2024-02-21T11:14:31;10.20;99.90
55830;DHT22;41759;53.330;6.002;2024-02-21T11:17:15;10.30;99.90
55830;DHT22;41759;53.330;6.002;2024-02-21T11:19:41;10.20;99.90
55830;DHT22;41759;53.330;6.002;2024-02-21T11:22:17;10.10;99.90
55830;DHT22;41759;53.330;6.002;2024-02-21T11:24:43;10.10;99.90
55830;DHT22;41759;53.330;6.002;2024-02-21T11:27:22;10.30;99.90
55830;DHT22;41759;53.330;6.002;2024-02-21T11:29:56;10.00;99.90
55830;DHT22;41759;53.330;6.002;2024-02-21T11:32:22;10.60;99.90
55830;DHT22;41759;53.330;6.002;2024-02-21T11:35:04;10.00;99.90
55830;DHT22;41759;53.330;6.002;2024-02-21T11:37:31;10.00;99.90
55830;DHT22;41759;53.330;6.002;2024-02-21T11:40:02;10.00;99.90
55830;DHT22;41759;53.330;6.002;2024-02-21T11:42:29;10.00;99.90
55830;DHT22;41759;53.330;6.002;2024-02-21T11:45:00;10.00;99.90
55830;DHT22;41759;53.330;6.002;2024-02-21T11:47:28;11.00;99.90
55830;DHT22;41759;53.330;6.002;2024-02-21T11:49:54;10.10;99.90
55830;DHT22;41759;53.330;6.002;2024-02-21T11:52:24;10.10;99.90
55830;DHT22;41759;53.330;6.002;2024-02-21T11:54:51;10.10;99.90
55830;DHT22;41759;53.330;6.002;2024-02-21T11:57:18;10.10;99.90
55830;DHT22;41759;53.330;6.002;2024-02-21T11:59:47;10.10;99.90
55830;DHT22;41759;53.330;6.002;2024-02-21T12:02:15;10.10;99.90
55830;DHT22;41759;53.330;6.002;2024-02-21T12:04:42;10.30;99.90
55830;DHT22;41759;53.330;6.002;2024-02-21T12:07:09;10.10;99.90
55830;DHT22;41759;53.330;6.002;2024-02-21T12:09:35;10.00;99.90
55830;DHT22;41759;53.330;6.002;2024-02-21T12:12:03;10.40;99.90
55830;DHT22;41759;53.330;6.002;2024-02-21T12:14:30;10.10;99.90
55830;DHT22;41759;53.330;6.002;2024-02-21T12:16:56;10.10;99.90
55830;DHT22;41759;53.330;6.002;2024-02-21T12:19:22;10.10;99.90
55830;DHT22;41759;53.330;6.002;2024-02-21T12:21:49;10.10;99.90
55830;DHT22;41759;53.330;6.002;2024-02-21T12:24:26;10.20;99.90
55830;DHT22;41759;53.330;6.002;2024-02-21T12:26:53;10.20;99.90
55830;DHT22;41759;53.330;6.002;2024-02-21T12:29:19;10.20;99.90
55830;DHT22;41759;53.330;6.002;2024-02-21T12:31:45;10.20;99.90
55830;DHT22;41759;53.330;6.002;2024-02-21T12:34:11;10.20;99.90
55830;DHT22;41759;53.330;6.002;2024-02-21T12:36:46;10.40;99.90
55830;DHT22;41759;53.330;6.002;2024-02-21T12:39:15;10.30;99.90
55830;DHT22;41759;53.330;6.002;2024-02-21T12:41:42;10.20;99.90
55830;DHT22;41759;53.330;6.002;2024-02-21T12:44:10;10.20;99.90
55830;DHT22;41759;53.330;6.002;2024-02-21T12:46:37;10.20;99.90
55830;DHT22;41759;53.330;6.002;2024-02-21T12:49:03;10.20;99.90
55830;DHT22;41759;53.330;6.002;2024-02-21T12:51:33;10.20;99.90
55830;DHT22;41759;53.330;6.002;2024-02-21T12:53:59;10.20;99.90
55830;DHT22;41759;53.330;6.002;2024-02-21T12:56:26;10.30;99.90
55830;DHT22;41759;53.330;6.002;2024-02-21T12:58:53;10.30;99.90
55830;DHT22;41759;53.330;6.002;2024-02-21T13:01:19;10.30;99.90
55830;DHT22;41759;53.330;6.002;2024-02-21T13:03:44;10.30;99.90
55830;DHT22;41759;53.330;6.002;2024-02-21T13:06:12;10.30;99.90
55830;DHT22;41759;53.330;6.002;2024-02-21T13:08:38;10.30;99.90
55830;DHT22;41759;53.330;6.002;2024-02-21T13:11:04;10.30;99.90
55830;DHT22;41759;53.330;6.002;2024-02-21T13:13:30;10.60;99.90
55830;DHT22;41759;53.330;6.002;2024-02-21T13:15:57;10.90;99.90
55830;DHT22;41759;53.330;6.002;2024-02-21T13:18:23;10.30;99.90
55830;DHT22;41759;53.330;6.002;2024-02-21T13:20:49;10.30;99.90
55830;DHT22;41759;53.330;6.002;2024-02-21T13:23:14;9.70;99.90
55830;DHT22;41759;53.330;6.002;2024-02-21T13:25:40;10.30;99.90
55830;DHT22;41759;53.330;6.002;2024-02-21T13:28:06;10.30;99.90
55830;DHT22;41759;53.330;6.002;2024-02-21T13:30:32;10.30;99.90
55830;DHT22;41759;53.330;6.002;2024-02-21T13:32:58;10.30;99.90
55830;DHT22;41759;53.330;6.002;2024-02-21T13:35:24;10.30;99.90
55830;DHT22;41759;53.330;6.002;2024-02-21T13:37:49;10.60;99.90
55830;DHT22;41759;53.330;6.002;2024-02-21T13:40:15;10.20;99.90
55830;DHT22;41759;53.330;6.002;2024-02-21T13:42:42;10.80;99.90
55830;DHT22;41759;53.330;6.002;2024-02-21T13:45:09;10.20;99.90
55830;DHT22;41759;53.330;6.002;2024-02-21T13:47:35;10.10;99.90
55830;DHT22;41759;53.330;6.002;2024-02-21T13:50:05;10.10;99.90
55830;DHT22;41759;53.330;6.002;2024-02-21T13:52:34;10.10;99.90
55830;DHT22;41759;53.330;6.002;2024-02-21T13:55:00;10.10;99.90
55830;DHT22;41759;53.330;6.002;2024-02-21T13:57:25;10.30;99.90
55830;DHT22;41759;53.330;6.002;2024-02-21T13:59:51;10.00;99.90
55830;DHT22;41759;53.330;6.002;2024-02-21T14:02:17;10.80;99.90
55830;DHT22;41759;53.330;6.002;2024-02-21T14:04:43;10.00;99.90
55830;DHT22;41759;53.330;6.002;2024-02-21T14:07:09;10.00;99.90
55830;DHT22;41759;53.330;6.002;2024-02-21T14:09:34;9.90;99.90
55830;DHT22;41759;53.330;6.002;2024-02-21T14:12:00;9.90;99.90
55830;DHT22;41759;53.330;6.002;2024-02-21T14:14:26;10.00;99.90
55830;DHT22;41759;53.330;6.002;2024-02-21T14:16:51;11.30;99.90
55830;DHT22;41759;53.330;6.002;2024-02-21T14:19:17;9.90;99.90
55830;DHT22;41759;53.330;6.002;2024-02-21T14:21:44;9.90;99.90
55830;DHT22;41759;53.330;6.002;2024-02-21T14:24:11;10.90;99.90
55830;DHT22;41759;53.330;6.002;2024-02-21T14:26:37;10.80;99.90
55830;DHT22;41759;53.330;6.002;2024-02-21T14:29:04;10.20;99.90
55830;DHT22;41759;53.330;6.002;2024-02-21T14:31:33;10.30;99.90
55830;DHT22;41759;53.330;6.002;2024-02-21T14:33:59;10.40;99.90
55830;DHT22;41759;53.330;6.002;2024-02-21T14:36:26;11.40;99.90
55830;DHT22;41759;53.330;6.002;2024-02-21T14:38:52;10.20;99.90
55830;DHT22;41759;53.330;6.002;2024-02-21T14:41:18;10.20;99.90
55830;DHT22;41759;53.330;6.002;2024-02-21T14:43:44;9.70;99.90
55830;DHT22;41759;53.330;6.002;2024-02-21T14:46:11;9.70;99.90
55830;DHT22;41759;53.330;6.002;2024-02-21T14:48:37;9.70;99.90
55830;DHT22;41759;53.330;6.002;2024-02-21T14:51:04;9.70;99.90
55830;DHT22;41759;53.330;6.002;2024-02-21T14:53:30;9.60;99.90
55830;DHT22;41759;53.330;6.002;2024-02-21T14:55:56;9.60;99.90
55830;DHT22;41759;53.330;6.002;2024-02-21T14:58:23;10.20;99.90
55830;DHT22;41759;53.330;6.002;2024-02-21T15:00:49;9.60;99.90
55830;DHT22;41759;53.330;6.002;2024-02-21T15:03:16;9.60;99.90
55830;DHT22;41759;53.330;6.002;2024-02-21T15:05:45;9.60;99.90
55830;DHT22;41759;53.330;6.002;2024-02-21T15:08:11;9.60;99.90
55830;DHT22;41759;53.330;6.002;2024-02-21T15:10:37;9.60;99.90
55830;DHT22;41759;53.330;6.002;2024-02-21T15:13:04;9.60;99.90
55830;DHT22;41759;53.330;6.002;2024-02-21T15:15:29;10.30;99.90
55830;DHT22;41759;53.330;6.002;2024-02-21T15:17:56;9.60;99.90
55830;DHT22;41759;53.330;6.002;2024-02-21T15:20:22;9.60;99.90
55830;DHT22;41759;53.330;6.002;2024-02-21T15:22:47;9.70;99.90
55830;DHT22;41759;53.330;6.002;2024-02-21T15:25:14;10.20;99.90
55830;DHT22;41759;53.330;6.002;2024-02-21T15:27:44;10.10;99.90
55830;DHT22;41759;53.330;6.002;2024-02-21T15:30:11;9.60;99.90
55830;DHT22;41759;53.330;6.002;2024-02-21T15:32:37;9.60;99.90
55830;DHT22;41759;53.330;6.002;2024-02-21T15:35:06;10.10;99.90
55830;DHT22;41759;53.330;6.002;2024-02-21T15:37:33;9.50;99.90
55830;DHT22;41759;53.330;6.002;2024-02-21T15:39:59;9.50;99.90
55830;DHT22;41759;53.330;6.002;2024-02-21T15:42:25;10.90;99.90